createdAt,value
2023-04-13T00:02:24.614Z,98617.41
2023-04-13T00:07:28.344Z,98616.56
2023-04-13T00:12:30.646Z,98608.28
2023-04-13T00:17:33.590Z,98617.53
2023-04-13T00:22:36.985Z,98619.22
2023-04-13T00:27:42.371Z,98617.56
2023-04-13T00:32:45.228Z,98609.25
2023-04-13T00:37:49.940Z,98615.97
2023-04-13T00:42:51.860Z,98610.09
2023-04-13T00:47:54.105Z,98621.81
2023-04-13T00:52:55.982Z,98627.66
2023-04-13T00:57:59.412Z,98611.75
2023-04-13T01:03:01.937Z,98608.44
2023-04-13T01:08:36.789Z,98619.34
2023-04-13T01:13:55.934Z,98609.31
2023-04-13T01:18:58.337Z,98626.06
2023-04-13T01:24:03.057Z,98625.25
2023-04-13T01:29:06.497Z,98615.22
2023-04-13T01:34:09.082Z,98621.09
2023-04-13T01:39:18.779Z,98632.78
2023-04-13T01:44:21.123Z,98631.94
2023-04-13T01:49:24.298Z,98633.59
2023-04-13T01:54:56.499Z,98631.88
2023-04-13T01:59:58.873Z,98638.56
2023-04-13T02:05:00.542Z,98641.09
2023-04-13T02:10:06.052Z,98671.22
2023-04-13T02:15:08.328Z,98673.78
2023-04-13T02:20:11.313Z,98687.19
2023-04-13T02:25:13.033Z,98686.31
2023-04-13T02:30:14.646Z,98679.63
2023-04-13T02:35:17.252Z,98668.81
2023-04-13T02:40:19.545Z,98679.66
2023-04-13T02:45:21.337Z,98668.88
2023-04-13T02:50:24.176Z,98680.59
2023-04-13T02:55:36.539Z,98684.78
2023-04-13T03:00:42.294Z,98696.47
2023-04-13T03:05:50.329Z,98708.13
2023-04-13T03:10:55.770Z,98714.81
2023-04-13T03:16:00.493Z,98715.66
2023-04-13T03:21:02.661Z,98720.66
2023-04-13T03:26:12.257Z,98718.22
2023-04-13T03:31:15.182Z,98720.75
2023-04-13T03:36:17.530Z,98719.09
2023-04-13T03:41:19.722Z,98727.44
2023-04-13T03:46:22.673Z,98727.44
2023-04-13T03:51:24.529Z,98734.13
2023-04-13T03:56:27.811Z,98737.44
2023-04-13T04:01:30.736Z,98742.44
2023-04-13T04:06:32.500Z,98743.28
2023-04-13T04:11:43.599Z,98744.13
2023-04-13T04:16:47.045Z,98745.78
2023-04-13T04:21:52.921Z,98742.41
2023-04-13T04:26:58.013Z,98742.44
2023-04-13T04:32:05.499Z,98753.31
2023-04-13T04:37:19.731Z,98765.03
2023-04-13T04:42:34.075Z,98777.63
2023-04-13T04:47:42.102Z,98774.31
2023-04-13T04:52:50.336Z,98776.81
2023-04-13T04:57:56.492Z,98779.28
2023-04-13T05:03:00.991Z,98773.41
2023-04-13T05:08:03.176Z,98781.78
2023-04-13T05:13:05.302Z,98799.38
2023-04-13T05:18:07.090Z,98806.03
2023-04-13T05:23:09.750Z,98811.03
2023-04-13T05:28:18.156Z,98820.25
2023-04-13T05:33:21.663Z,98824.44
2023-04-13T05:38:28.965Z,98826.09
2023-04-13T05:43:31.608Z,98816.88
2023-04-13T05:48:34.847Z,98816.84
2023-04-13T05:53:39.901Z,98816.84
2023-04-13T05:58:41.671Z,98831.09
2023-04-13T06:03:56.431Z,98823.53
2023-04-13T06:08:59.123Z,98828.56
2023-04-13T06:14:02.573Z,98840.22
2023-04-13T06:19:05.034Z,98840.25
2023-04-13T06:24:09.726Z,98844.44
2023-04-13T06:29:12.981Z,98841.03
2023-04-13T06:34:21.848Z,98852.78
2023-04-13T06:39:23.593Z,98854.44
2023-04-13T06:44:32.568Z,98854.41
2023-04-13T06:49:34.559Z,98856.06
2023-04-13T06:54:37.752Z,98869.44
2023-04-13T06:59:47.954Z,98869.44
2023-04-13T07:04:49.966Z,98869.44
2023-04-13T07:09:54.072Z,98878.66
2023-04-13T07:14:55.887Z,98885.38
2023-04-13T07:19:58.950Z,98887.06
2023-04-13T07:25:01.400Z,98878.69
2023-04-13T07:30:03.871Z,98884.56
2023-04-13T07:35:12.318Z,98886.22
2023-04-13T07:40:17.029Z,98886.16
2023-04-13T07:45:22.923Z,98887.84
2023-04-13T07:50:25.879Z,98886.13
2023-04-13T07:55:27.989Z,98891.25
2023-04-13T08:00:31.331Z,98889.53
2023-04-13T08:05:36.799Z,98898.72
2023-04-13T08:10:38.594Z,98899.53
2023-04-13T08:15:42.554Z,98895.38
2023-04-13T08:20:44.255Z,98906.19
2023-04-13T08:25:47.188Z,98901.22
2023-04-13T08:30:50.876Z,98904.56
2023-04-13T08:35:53.763Z,98907.13
2023-04-13T08:40:56.343Z,98914.66
2023-04-13T08:46:07.798Z,98907.94
2023-04-13T08:51:10.577Z,98907.13
2023-04-13T08:56:14.870Z,98908.78
2023-04-13T09:01:17.354Z,98909.59
2023-04-13T09:06:25.982Z,98906.06
2023-04-13T09:11:28.632Z,98910.13
2023-04-13T09:16:42.200Z,98899.06
2023-04-13T09:21:50.778Z,98882.78
2023-04-13T09:26:52.934Z,98891.16
2023-04-13T09:31:54.828Z,98901.31
2023-04-13T09:36:58.627Z,98893.78
2023-04-13T09:42:10.336Z,98898.72
2023-04-13T09:47:12.936Z,98891.31
2023-04-13T09:52:24.501Z,98886.97
2023-04-13T09:57:31.860Z,98889.09
2023-04-13T10:02:34.135Z,98884.94
2023-04-13T10:07:38.141Z,98877.19
2023-04-13T10:12:46.263Z,98869.41
2023-04-13T10:18:03.838Z,98875.00
2023-04-13T10:23:06.520Z,98868.78
2023-04-13T10:28:08.153Z,98874.56
2023-04-13T10:33:11.636Z,98864.81
2023-04-13T10:38:15.204Z,98869.91
2023-04-13T10:43:26.860Z,98872.28
2023-04-13T10:48:28.484Z,98867.66
2023-04-13T10:53:35.058Z,98855.50
2023-04-13T10:58:37.024Z,98851.66
2023-04-13T11:03:41.477Z,98848.84
2023-04-13T11:08:48.422Z,98833.06
2023-04-13T11:13:50.579Z,98826.09
2023-04-13T11:19:02.848Z,98843.88
2023-04-13T11:24:04.791Z,98840.81
2023-04-13T11:29:17.082Z,98823.81
2023-04-13T11:34:26.485Z,98840.78
2023-04-13T11:39:29.000Z,98843.59
2023-04-13T11:44:30.929Z,98857.06
2023-04-13T11:49:33.148Z,98848.53
2023-04-13T11:54:35.167Z,98855.56
2023-04-13T11:59:38.684Z,98867.22
2023-04-13T12:04:45.959Z,98869.59
2023-04-13T12:15:12.369Z,98868.09
2023-04-13T12:20:20.544Z,98862.28
2023-04-13T12:25:24.366Z,98871.50
2023-04-13T12:30:27.582Z,98874.94
2023-04-13T12:35:29.210Z,98885.66
2023-04-13T12:40:31.105Z,98884.00
2023-04-13T12:45:32.885Z,98888.84
2023-04-13T12:50:34.718Z,98888.06
2023-04-13T12:55:36.570Z,98898.03
2023-04-13T13:00:38.242Z,98905.44
2023-04-13T13:05:40.176Z,98886.97
2023-04-13T13:10:42.406Z,98895.41
2023-04-13T13:15:44.109Z,98886.97
2023-04-13T13:20:45.996Z,98871.88
2023-04-13T13:26:04.441Z,98873.13
2023-04-13T13:31:10.841Z,98873.44
2023-04-13T13:36:14.058Z,98866.00
2023-04-13T13:41:16.364Z,98876.03
2023-04-13T13:46:18.320Z,98893.53
2023-04-13T13:51:20.843Z,98892.69
2023-04-13T13:56:23.286Z,98890.22
2023-04-13T14:01:25.221Z,98897.66
2023-04-13T14:06:27.839Z,98889.38
2023-04-13T14:11:29.814Z,98886.09
2023-04-13T14:16:31.754Z,98869.44
2023-04-13T14:21:33.510Z,98879.47
2023-04-13T14:26:38.384Z,98876.09
2023-04-13T14:31:40.134Z,98871.91
2023-04-13T14:36:42.556Z,98871.81
2023-04-13T14:41:45.446Z,98878.56
2023-04-13T14:46:47.076Z,98872.72
2023-04-13T14:51:48.897Z,98871.81
2023-04-13T14:56:50.628Z,98869.16
2023-04-13T15:01:52.371Z,98863.31
2023-04-13T15:06:54.476Z,98872.38
2023-04-13T15:11:56.230Z,98879.19
2023-04-13T15:16:58.154Z,98882.66
2023-04-13T15:22:00.194Z,98889.31
2023-04-13T15:27:01.901Z,98889.31
2023-04-13T15:32:03.666Z,98893.63
2023-04-13T15:37:05.501Z,98889.47
2023-04-13T15:42:07.097Z,98877.69
2023-04-13T15:47:08.938Z,98879.50
2023-04-13T15:52:10.773Z,98878.69
2023-04-13T15:57:12.511Z,98886.25
2023-04-13T16:02:14.521Z,98882.91
2023-04-13T16:07:16.996Z,98880.41
2023-04-13T16:12:18.972Z,98866.25
2023-04-13T16:17:30.893Z,98864.56
2023-04-13T16:22:35.648Z,98856.16
2023-04-13T16:27:38.484Z,98856.16
2023-04-13T16:32:46.539Z,98850.31
2023-04-13T16:37:48.472Z,98861.19
2023-04-13T16:42:50.169Z,98872.09
2023-04-13T16:47:55.415Z,98890.50
2023-04-13T16:52:57.172Z,98896.38
2023-04-13T16:57:58.959Z,98907.22
2023-04-13T17:03:00.758Z,98908.06
2023-04-13T17:08:04.256Z,98904.75
2023-04-13T17:13:05.951Z,98898.91
2023-04-13T17:18:07.847Z,98900.59
2023-04-13T17:23:09.508Z,98916.50
2023-04-13T17:28:11.114Z,98902.28
2023-04-13T17:33:12.768Z,98909.00
2023-04-13T17:38:14.526Z,98918.19
2023-04-13T17:43:16.682Z,98907.31
2023-04-13T17:48:18.274Z,98908.13
2023-04-13T17:53:20.080Z,98919.84
2023-04-13T17:58:21.772Z,98937.44
2023-04-13T18:03:23.694Z,98919.03
2023-04-13T18:08:25.516Z,98924.88
2023-04-13T18:13:27.509Z,98926.56
2023-04-13T18:18:29.212Z,98925.75
2023-04-13T18:23:31.341Z,98934.94
2023-04-13T18:28:36.905Z,98950.81
2023-04-13T18:33:38.864Z,98947.50
2023-04-13T18:38:40.540Z,98952.50
2023-04-13T18:43:42.252Z,98952.50
2023-04-13T18:48:44.235Z,98943.28
2023-04-13T18:53:46.023Z,98934.91
2023-04-13T18:58:49.591Z,98937.44
2023-04-13T19:03:52.900Z,98943.28
2023-04-13T19:08:54.768Z,98927.41
2023-04-13T19:13:56.942Z,98911.50
2023-04-13T19:18:58.558Z,98907.31
2023-04-13T19:24:00.370Z,98908.13
2023-04-13T19:29:04.023Z,98916.53
2023-04-13T19:34:07.584Z,98908.16
2023-04-13T19:39:10.048Z,98909.78
2023-04-13T19:44:14.020Z,98898.13
2023-04-13T19:49:15.718Z,98885.56
2023-04-13T19:54:17.340Z,98887.22
2023-04-13T19:59:18.962Z,98893.09
2023-04-13T20:04:20.650Z,98887.22
2023-04-13T20:09:22.962Z,98866.31
2023-04-13T20:14:24.646Z,98857.13
2023-04-13T20:19:26.559Z,98862.13
2023-04-13T20:24:28.190Z,98862.97
2023-04-13T20:29:29.804Z,98858.81
2023-04-13T20:34:31.471Z,98842.06
2023-04-13T20:39:33.159Z,98825.34
2023-04-13T20:44:38.389Z,98821.16
2023-04-13T20:49:47.078Z,98827.00
2023-04-13T20:54:48.788Z,98821.16
2023-04-13T20:59:52.053Z,98823.66
2023-04-13T21:04:53.999Z,98822.81
2023-04-13T21:09:55.931Z,98817.81
2023-04-13T21:14:57.736Z,98801.09
2023-04-13T21:20:00.468Z,98788.53
2023-04-13T21:25:04.033Z,98775.16
2023-04-13T21:30:06.260Z,98793.53
2023-04-13T21:35:08.590Z,98797.72
2023-04-13T21:40:10.702Z,98797.72
2023-04-13T21:45:12.571Z,98796.88
2023-04-13T21:50:14.244Z,98777.63
2023-04-13T21:55:19.334Z,98765.09
2023-04-13T22:00:20.988Z,98765.91
2023-04-13T22:05:22.549Z,98775.09
2023-04-13T22:10:24.264Z,98780.09
2023-04-13T22:15:26.000Z,98770.91
2023-04-13T22:20:27.642Z,98742.47
2023-04-13T22:25:29.287Z,98736.63
2023-04-13T22:30:31.073Z,98714.88
2023-04-13T22:35:34.526Z,98697.38
2023-04-13T22:40:39.395Z,98676.47
2023-04-13T22:45:41.226Z,98694.81
2023-04-13T22:50:42.826Z,98708.16
2023-04-13T22:55:44.435Z,98706.53
2023-04-13T23:00:46.216Z,98685.66
2023-04-13T23:05:48.096Z,98694.03
2023-04-13T23:10:49.754Z,98694.88
2023-04-13T23:15:59.108Z,98696.53
2023-04-13T23:21:09.729Z,98687.34
2023-04-13T23:26:11.388Z,98673.19
2023-04-13T23:31:13.475Z,98645.63
2023-04-13T23:36:16.143Z,98633.09
2023-04-13T23:41:17.821Z,98629.75
2023-04-13T23:46:20.129Z,98626.38
2023-04-13T23:51:22.408Z,98616.38
2023-04-13T23:56:24.204Z,98613.88
